Lovell, WY

3:05 AM MDT on September 18, 2014 (GMT -0600)
Lodgepole Court | Change Station
CLOSE
Current Station
Personal Weather Station
Location: Powell, WY
Elevation: 4413 ft
Nearby Weather Stations
Active Advisory: Special Statement Active Notice: Record Report

Elev 4413 ft 44.76 °N, 108.77 °W | Updated 2 minutes ago

Partly Cloudy
Partly Cloudy
53.7 °F
Feels Like 53.7 °F
N
0.0
Wind Variable Wind from NNE
Gusts 0.0 mph

Today
High -- | Low -- °F
--% Chance of Precip.
Yesterday
High -- | Low -- °F
Precip. -- in
6:55 AM 7:18 PM
Waning Crescent, 28% visible
Pressure 29.83 in
Visibility 10.0 miles
Clouds Clear
Dew Point 49 °F
Humidity 85%
Rainfall 0.00 in
Snow Depth Not available.
UV 0 out of 12
Pollen 6.00 out of 12
Air Quality Not available.
Flu Activity Not available.
METAR KGEY 180753Z AUTO 11004KT 10SM CLR 14/09 A2993 RMK AO2 SLP101 T01390094

More Conditions Fewer Conditions

Pressure 29.83 in
Visibility 10.0 miles
Clouds Clear
Dew Point 49 °F
Humidity 85%
Rainfall 0.00 in
Snow Depth Not available.
UV 0 out of 12
Pollen 6.00 out of 12
Air Quality Not available.
Flu Activity Not available.
METAR KGEY 180753Z AUTO 11004KT 10SM CLR 14/09 A2993 RMK AO2 SLP101 T01390094

More Conditions Fewer Conditions

10-Day Weather Forecast

Almanac

Astronomy

Sep. 18, 2014 Rise Set
Actual Time 6:55 AM MDT 7:18 PM MDT
Civil Twilight 6:26 AM MDT 7:47 PM MDT
Nautical Twilight 5:51 AM MDT 8:22 PM MDT
Astronomical Twilight 5:16 AM MDT 8:57 PM MDT
Moon 1:40 AM MDT 4:20 PM MDT
Length of Visible Light 13h 21m
Length of Day
12h 22m
Tomorrow will be 3m 5s shorter.
Waning Crescent, 28% of the Moon is Illuminated
Today
Waning Crescent
Sep 24
New
Oct 1
First Quarter
Oct 8
Full
Oct 15
Last Quarter

Today's Extremes

State Highs State Lows

Community

WunderPhotos

Upload Photos

1,754,310 photos uploaded!

Nearby

Snow Depth

Station Depth Elevation
Granite Creek 0 in 6770 ft
Loomis Park 0 in 8240 ft
Crow Creek 0 in 8330 ft
Sand Lake 0 in 10050 ft
North French Creek 1 in 10130 ft

Earthquake Activity

City Distance Mag. Time & Date
No recent earthquake activity has been reported nearby.
Minimum magnitude displayed is 2.5.

Coastal Water Temperatures

Place Temperature
No Stations Reporting

Nearby Weather Stations